createdAt,value
2018-06-17T00:00:08.853Z,77.66
2018-06-17T00:02:37.543Z,78.12
2018-06-17T00:05:06.499Z,77.98
2018-06-17T00:07:35.037Z,78.12
2018-06-17T00:10:04.216Z,77.49
2018-06-17T00:12:33.101Z,78.12
2018-06-17T00:15:01.655Z,77.46
2018-06-17T00:17:30.143Z,77.05
2018-06-17T00:19:59.017Z,77.50
2018-06-17T00:22:27.721Z,77.36
2018-06-17T00:24:56.818Z,78.29
2018-06-17T00:27:25.393Z,78.62
2018-06-17T00:29:53.973Z,78.47
2018-06-17T00:32:22.533Z,79.08
2018-06-17T00:34:51.053Z,78.48
2018-06-17T00:37:19.584Z,78.70
2018-06-17T00:39:48.391Z,79.49
2018-06-17T00:42:16.902Z,79.98
2018-06-17T00:44:45.397Z,79.48
2018-06-17T00:47:13.931Z,80.78
2018-06-17T00:49:42.480Z,81.04
2018-06-17T00:52:10.938Z,81.74
2018-06-17T00:54:39.447Z,80.64
2018-06-17T00:57:19.015Z,80.82
2018-06-17T00:59:47.549Z,81.17
2018-06-17T01:02:16.215Z,81.59
2018-06-17T01:04:44.849Z,81.75
2018-06-17T01:07:13.343Z,81.05
2018-06-17T01:09:41.940Z,81.60
2018-06-17T01:12:10.800Z,81.55
2018-06-17T01:14:39.369Z,82.62
2018-06-17T01:17:07.945Z,82.33
2018-06-17T01:19:36.515Z,83.13
2018-06-17T01:22:05.213Z,82.52
2018-06-17T01:24:33.790Z,83.07
2018-06-17T01:27:02.374Z,82.91
2018-06-17T01:29:31.045Z,83.57
2018-06-17T01:31:59.597Z,83.00
2018-06-17T01:34:28.059Z,83.66
2018-06-17T01:36:56.565Z,83.08
2018-06-17T01:39:25.064Z,83.41
2018-06-17T01:41:53.562Z,83.52
2018-06-17T01:44:22.109Z,84.19
2018-06-17T01:46:50.648Z,83.99
2018-06-17T01:49:19.165Z,84.46
2018-06-17T01:51:47.758Z,84.58
2018-06-17T01:54:16.246Z,84.41
2018-06-17T01:56:44.761Z,83.87
2018-06-17T01:59:13.597Z,83.62
2018-06-17T02:01:42.131Z,83.85
2018-06-17T02:06:17.281Z,84.16
2018-06-17T02:08:51.208Z,84.47
2018-06-17T02:11:24.938Z,85.21
2018-06-17T02:13:55.698Z,84.93
2018-06-17T02:16:24.437Z,84.97
2018-06-17T02:18:52.980Z,85.34
2018-06-17T02:21:21.460Z,85.49
2018-06-17T02:23:50.004Z,85.92
2018-06-17T02:26:18.530Z,86.89
2018-06-17T02:28:47.101Z,86.66
2018-06-17T02:31:15.646Z,86.65
2018-06-17T02:33:47.090Z,86.08
2018-06-17T02:36:15.609Z,86.75
2018-06-17T02:38:44.208Z,87.14
2018-06-17T02:41:12.793Z,87.91
2018-06-17T02:43:41.251Z,89.38
2018-06-17T02:46:14.941Z,89.42
2018-06-17T02:48:48.681Z,89.79
2018-06-17T02:51:22.632Z,90.88
2018-06-17T02:54:56.526Z,90.64
2018-06-17T02:57:25.371Z,91.70
2018-06-17T02:59:53.888Z,91.91
2018-06-17T03:02:22.457Z,92.71
2018-06-17T03:04:51.152Z,91.98
2018-06-17T03:07:19.707Z,92.17
2018-06-17T03:09:48.252Z,93.28
2018-06-17T03:12:16.763Z,92.81
2018-06-17T03:14:45.377Z,92.91
2018-06-17T03:17:13.825Z,93.21
2018-06-17T03:19:42.598Z,93.02
2018-06-17T03:22:11.089Z,92.76
2018-06-17T03:26:50.994Z,93.50
2018-06-17T03:29:24.736Z,93.46
2018-06-17T03:31:58.459Z,93.59
2018-06-17T03:34:26.998Z,94.08
2018-06-17T03:36:55.774Z,93.80
2018-06-17T03:39:24.388Z,93.77
2018-06-17T03:41:53.007Z,93.61
2018-06-17T03:44:21.522Z,93.74
2018-06-17T03:46:49.962Z,94.29
2018-06-17T03:49:18.480Z,93.62
2018-06-17T03:51:47.270Z,93.36
2018-06-17T03:54:15.727Z,94.16
2018-06-17T03:56:44.386Z,94.32
2018-06-17T03:59:12.925Z,94.03
2018-06-17T04:01:41.469Z,93.52
2018-06-17T04:04:10.063Z,94.47
2018-06-17T04:06:38.575Z,94.92
2018-06-17T04:09:08.388Z,94.52
2018-06-17T04:11:37.344Z,94.60
2018-06-17T04:14:05.830Z,93.83
2018-06-17T04:16:34.378Z,94.26
2018-06-17T04:19:02.859Z,94.10
2018-06-17T04:21:31.477Z,93.81
2018-06-17T04:24:00.018Z,93.77
2018-06-17T04:26:28.523Z,93.37
2018-06-17T04:28:57.318Z,92.82
2018-06-17T04:31:25.905Z,93.60
2018-06-17T04:33:54.632Z,93.36
2018-06-17T04:36:23.207Z,93.56
2018-06-17T04:38:51.794Z,93.46
2018-06-17T04:41:20.313Z,92.36
2018-06-17T04:43:48.957Z,92.44
2018-06-17T04:46:17.472Z,92.61
2018-06-17T04:48:45.970Z,91.65
2018-06-17T04:51:14.820Z,91.71
2018-06-17T04:53:43.524Z,90.83
2018-06-17T04:56:12.100Z,90.45
2018-06-17T04:58:40.659Z,89.45
2018-06-17T05:01:09.424Z,89.27
2018-06-17T05:03:38.012Z,87.66
2018-06-17T05:06:06.647Z,88.13
2018-06-17T05:08:35.523Z,87.92
2018-06-17T05:11:04.146Z,87.17
2018-06-17T05:13:33.162Z,87.19
2018-06-17T05:16:01.630Z,85.59
2018-06-17T05:18:30.358Z,85.47
2018-06-17T05:20:58.935Z,85.63
2018-06-17T05:23:27.528Z,84.20
2018-06-17T05:25:56.038Z,83.28
2018-06-17T05:28:24.725Z,84.28
2018-06-17T05:30:53.278Z,83.78
2018-06-17T05:33:21.842Z,83.68
2018-06-17T05:35:50.476Z,82.56
2018-06-17T05:38:19.329Z,79.93
2018-06-17T05:40:47.987Z,77.52
2018-06-17T05:43:16.705Z,75.38
2018-06-17T05:45:45.592Z,74.02
2018-06-17T05:48:14.285Z,70.74
2018-06-17T05:50:42.910Z,71.62
2018-06-17T05:53:11.561Z,72.71
2018-06-17T05:55:40.222Z,71.84
2018-06-17T05:58:09.095Z,72.00
2018-06-17T06:00:37.812Z,72.71
2018-06-17T06:03:06.392Z,71.87
2018-06-17T06:05:34.994Z,70.74
2018-06-17T06:08:03.634Z,69.47
2018-06-17T06:10:32.145Z,69.21
2018-06-17T06:13:00.615Z,68.67
2018-06-17T06:15:29.250Z,67.66
2018-06-17T06:17:57.973Z,65.91
2018-06-17T06:20:27.582Z,64.44
2018-06-17T06:22:56.913Z,62.80
2018-06-17T06:25:25.594Z,62.90
2018-06-17T06:27:54.283Z,63.17
2018-06-17T06:30:22.934Z,63.05
2018-06-17T06:32:51.500Z,63.49
2018-06-17T06:35:20.051Z,61.14
2018-06-17T06:37:48.685Z,61.60
2018-06-17T06:40:17.329Z,62.32
2018-06-17T06:45:19.386Z,62.34
2018-06-17T06:47:49.117Z,62.76
2018-06-17T06:50:18.018Z,64.07
2018-06-17T06:52:46.881Z,65.25
2018-06-17T06:55:15.470Z,66.54
2018-06-17T06:57:44.218Z,65.96
2018-06-17T07:00:12.940Z,65.38
2018-06-17T07:02:52.490Z,64.28
2018-06-17T07:05:32.163Z,61.69
2018-06-17T07:08:11.775Z,63.23
2018-06-17T07:10:41.102Z,60.79
2018-06-17T07:13:10.150Z,61.12
2018-06-17T07:15:50.195Z,62.08
2018-06-17T07:18:30.382Z,61.98
2018-06-17T07:20:59.191Z,61.77
2018-06-17T07:23:27.893Z,60.15
2018-06-17T07:26:33.782Z,58.46
2018-06-17T07:29:13.460Z,59.62
2018-06-17T07:31:41.999Z,58.19
2018-06-17T07:34:11.521Z,58.37
2018-06-17T07:36:40.728Z,58.52
2018-06-17T07:39:23.163Z,58.32
2018-06-17T07:41:54.175Z,58.73
2018-06-17T07:44:22.833Z,57.11
2018-06-17T07:46:51.679Z,57.44
2018-06-17T07:49:34.787Z,57.33
2018-06-17T07:52:16.369Z,56.01
2018-06-17T07:54:46.386Z,58.50
2018-06-17T07:57:20.939Z,58.48
2018-06-17T07:59:49.805Z,57.11
2018-06-17T08:02:18.660Z,54.73
2018-06-17T08:04:47.301Z,56.47
2018-06-17T08:07:16.726Z,56.39
2018-06-17T08:09:45.262Z,56.39
2018-06-17T08:12:14.530Z,55.31
2018-06-17T08:14:43.162Z,56.90
2018-06-17T08:17:11.715Z,54.52
2018-06-17T08:19:40.758Z,54.93
2018-06-17T08:22:09.580Z,54.17
2018-06-17T08:24:39.215Z,54.88
2018-06-17T08:27:07.794Z,54.02
2018-06-17T08:29:36.519Z,55.01
2018-06-17T08:32:05.205Z,54.18
2018-06-17T08:34:33.811Z,53.00
2018-06-17T08:37:02.690Z,52.67
2018-06-17T08:39:31.446Z,53.27
2018-06-17T08:41:59.997Z,54.83
2018-06-17T08:44:28.519Z,53.42
2018-06-17T08:46:57.392Z,53.70
2018-06-17T08:49:26.316Z,54.03
2018-06-17T08:51:54.975Z,53.69
2018-06-17T08:54:23.563Z,52.43
2018-06-17T08:56:52.199Z,51.96
2018-06-17T08:59:21.645Z,52.79
2018-06-17T09:01:50.844Z,52.88
2018-06-17T09:04:20.396Z,52.48
2018-06-17T09:06:49.640Z,52.03
2018-06-17T09:09:18.560Z,51.97
2018-06-17T09:11:47.413Z,50.65
2018-06-17T09:14:16.554Z,50.70
2018-06-17T09:16:45.975Z,49.54
2018-06-17T09:19:14.804Z,49.71
2018-06-17T09:21:43.323Z,49.14
2018-06-17T09:24:12.895Z,48.50
2018-06-17T09:26:41.810Z,49.10
2018-06-17T09:29:10.696Z,48.39
2018-06-17T09:31:40.072Z,48.53
2018-06-17T09:34:09.210Z,48.29
2018-06-17T09:36:38.529Z,47.04
2018-06-17T09:39:09.248Z,47.53
2018-06-17T09:41:38.461Z,47.20
2018-06-17T09:44:07.121Z,47.31
2018-06-17T09:46:36.074Z,46.28
2018-06-17T09:49:05.247Z,47.11
2018-06-17T09:51:33.826Z,48.21
2018-06-17T09:54:02.990Z,48.33
2018-06-17T09:56:31.865Z,49.24
2018-06-17T09:59:00.654Z,48.29
2018-06-17T10:01:29.412Z,47.76
2018-06-17T10:03:58.050Z,48.84
2018-06-17T10:06:27.398Z,48.85
2018-06-17T10:08:56.755Z,48.94
2018-06-17T10:11:25.718Z,48.04
2018-06-17T10:13:54.617Z,46.97
2018-06-17T10:16:23.324Z,46.46
2018-06-17T10:18:52.211Z,46.67
2018-06-17T10:21:21.210Z,46.69
2018-06-17T10:23:50.036Z,46.50
2018-06-17T10:26:19.137Z,46.96
2018-06-17T10:28:47.780Z,47.29
2018-06-17T10:31:16.637Z,46.31
2018-06-17T10:33:45.214Z,46.41
2018-06-17T10:36:14.449Z,46.56
2018-06-17T10:38:44.009Z,45.69
2018-06-17T10:41:13.262Z,45.79
2018-06-17T10:43:42.209Z,45.46
2018-06-17T10:46:11.047Z,44.76
2018-06-17T10:48:41.625Z,45.23
2018-06-17T10:51:10.115Z,44.53
2018-06-17T10:53:39.065Z,44.48
2018-06-17T10:56:08.059Z,46.05
2018-06-17T10:58:36.995Z,45.75
2018-06-17T11:01:06.393Z,46.59
2018-06-17T11:03:35.954Z,45.29
2018-06-17T11:06:05.082Z,45.36
2018-06-17T11:08:33.814Z,45.62
2018-06-17T11:11:02.879Z,44.19
2018-06-17T11:13:31.388Z,44.10
2018-06-17T11:16:00.440Z,44.22
2018-06-17T11:18:29.804Z,44.89
2018-06-17T11:20:58.398Z,46.42
2018-06-17T11:23:28.527Z,44.51
2018-06-17T11:25:57.374Z,44.77
2018-06-17T11:28:25.993Z,45.12
2018-06-17T11:30:55.498Z,45.74
2018-06-17T11:33:24.137Z,44.45
2018-06-17T11:35:52.691Z,44.27
2018-06-17T11:38:24.060Z,45.63
2018-06-17T11:40:55.065Z,46.81
2018-06-17T11:43:24.303Z,46.98
2018-06-17T11:45:53.657Z,46.75
2018-06-17T11:48:23.481Z,47.32
2018-06-17T11:50:52.911Z,46.96
2018-06-17T11:53:21.491Z,47.56
2018-06-17T11:55:53.111Z,46.71
2018-06-17T11:58:26.357Z,45.68
2018-06-17T12:00:55.090Z,44.07
2018-06-17T12:03:25.883Z,44.87
2018-06-17T12:05:58.176Z,43.73
2018-06-17T12:08:27.009Z,44.56
2018-06-17T12:10:55.691Z,44.71
2018-06-17T12:13:29.080Z,44.53
2018-06-17T12:15:59.710Z,43.41
2018-06-17T12:18:31.523Z,43.53
2018-06-17T12:21:01.442Z,44.86
2018-06-17T12:23:32.194Z,44.70
2018-06-17T12:26:01.582Z,45.95
2018-06-17T12:28:30.194Z,46.30
2018-06-17T12:30:59.661Z,47.79
2018-06-17T12:33:28.492Z,45.66
2018-06-17T12:35:58.521Z,45.83
2018-06-17T12:38:35.311Z,47.23
2018-06-17T12:41:04.354Z,45.60
2018-06-17T12:43:33.120Z,45.38
2018-06-17T12:46:04.589Z,45.17
2018-06-17T12:48:33.175Z,45.64
2018-06-17T12:51:01.989Z,45.83
2018-06-17T12:53:30.649Z,46.20
2018-06-17T12:55:59.302Z,46.02
2018-06-17T12:58:28.082Z,45.42
2018-06-17T13:00:57.100Z,44.64
2018-06-17T13:03:25.989Z,45.61
2018-06-17T13:05:54.966Z,44.91
2018-06-17T13:08:23.717Z,44.53
2018-06-17T13:10:52.234Z,45.31
2018-06-17T13:13:21.023Z,45.79
2018-06-17T13:15:49.506Z,46.09
2018-06-17T13:18:18.010Z,46.39
2018-06-17T13:20:46.537Z,46.20
2018-06-17T13:23:15.175Z,46.85
2018-06-17T13:25:43.657Z,46.00
2018-06-17T13:28:12.615Z,46.51
2018-06-17T13:30:41.404Z,45.31
2018-06-17T13:33:10.016Z,43.36
2018-06-17T13:35:38.705Z,45.16
2018-06-17T13:38:07.484Z,44.77
2018-06-17T13:40:35.996Z,44.52
2018-06-17T13:43:04.563Z,44.47
2018-06-17T13:45:33.221Z,45.19
2018-06-17T13:48:01.735Z,45.28
2018-06-17T13:50:30.494Z,44.79
2018-06-17T13:52:59.418Z,45.38
2018-06-17T13:55:28.306Z,46.23
2018-06-17T13:57:57.165Z,46.27
2018-06-17T14:00:25.718Z,46.89
2018-06-17T14:02:54.492Z,45.41
2018-06-17T14:05:23.033Z,45.76
2018-06-17T14:07:51.860Z,45.59
2018-06-17T14:10:20.448Z,45.48
2018-06-17T14:12:49.015Z,45.17
2018-06-17T14:15:17.542Z,45.71
2018-06-17T14:17:46.425Z,46.48
2018-06-17T14:20:15.377Z,45.43
2018-06-17T14:22:44.229Z,45.95
2018-06-17T14:25:13.230Z,45.46
2018-06-17T14:27:42.034Z,46.54
2018-06-17T14:30:10.619Z,45.60
2018-06-17T14:32:39.403Z,45.58
2018-06-17T14:35:08.111Z,45.91
2018-06-17T14:37:37.238Z,46.62
2018-06-17T14:40:06.103Z,46.12
2018-06-17T14:43:40.325Z,47.15
2018-06-17T14:46:13.930Z,47.08
2018-06-17T14:48:47.937Z,46.98
2018-06-17T14:51:21.910Z,46.62
2018-06-17T14:53:50.649Z,46.68
2018-06-17T14:56:19.130Z,46.79
2018-06-17T14:58:47.623Z,46.83
2018-06-17T15:01:16.369Z,47.09
2018-06-17T15:03:44.990Z,46.98
2018-06-17T15:06:13.800Z,47.29
2018-06-17T15:08:43.008Z,47.35
2018-06-17T15:11:11.523Z,47.20
2018-06-17T15:13:40.155Z,47.72
2018-06-17T15:16:08.736Z,47.90
2018-06-17T15:18:37.446Z,48.68
2018-06-17T15:21:05.996Z,48.08
2018-06-17T15:23:34.529Z,48.72
2018-06-17T15:26:03.286Z,48.08
2018-06-17T15:28:32.217Z,47.43
2018-06-17T15:31:05.899Z,47.53
2018-06-17T15:35:42.309Z,46.91
2018-06-17T15:38:16.275Z,46.68
2018-06-17T15:40:50.130Z,46.76
2018-06-17T15:43:18.943Z,46.89
2018-06-17T15:45:47.663Z,47.97
2018-06-17T15:48:16.170Z,47.96
2018-06-17T15:50:44.691Z,48.35
2018-06-17T15:53:13.130Z,48.81
2018-06-17T15:55:41.623Z,48.59
2018-06-17T15:58:10.194Z,47.95
2018-06-17T16:00:39.428Z,48.08
2018-06-17T16:03:08.820Z,48.56
2018-06-17T16:05:38.302Z,48.60
2018-06-17T16:08:06.814Z,48.74
2018-06-17T16:10:35.936Z,48.62
2018-06-17T16:13:11.209Z,49.24
2018-06-17T16:15:49.729Z,49.36
2018-06-17T16:18:23.766Z,49.30
2018-06-17T16:20:59.607Z,49.29
2018-06-17T16:23:29.423Z,48.87
2018-06-17T16:25:58.132Z,48.81
2018-06-17T16:28:26.693Z,49.12
2018-06-17T16:30:55.341Z,49.62
2018-06-17T16:33:23.872Z,50.23
2018-06-17T16:35:52.592Z,50.80
2018-06-17T16:38:21.589Z,50.26
2018-06-17T16:40:50.343Z,50.77
2018-06-17T16:43:19.471Z,50.78
2018-06-17T16:45:48.038Z,50.64
2018-06-17T16:48:16.695Z,50.75
2018-06-17T16:52:55.846Z,50.58
2018-06-17T16:55:29.553Z,50.43
2018-06-17T17:00:09.013Z,50.53
2018-06-17T17:02:37.575Z,51.09
2018-06-17T17:05:06.225Z,50.99
2018-06-17T17:07:35.116Z,51.42
2018-06-17T17:10:03.943Z,51.01
2018-06-17T17:12:32.783Z,51.29
2018-06-17T17:15:01.769Z,51.56
2018-06-17T17:17:30.401Z,51.43
2018-06-17T17:19:59.161Z,51.30
2018-06-17T17:22:27.776Z,51.40
2018-06-17T17:24:56.292Z,51.80
2018-06-17T17:27:24.915Z,51.59
2018-06-17T17:29:53.627Z,52.50
2018-06-17T17:32:27.332Z,53.11
2018-06-17T17:35:01.014Z,52.49
2018-06-17T17:37:34.756Z,52.75
2018-06-17T17:40:08.598Z,52.66
2018-06-17T17:42:37.153Z,52.44
2018-06-17T17:45:11.705Z,52.93
2018-06-17T17:47:40.425Z,52.88
2018-06-17T17:50:08.956Z,53.14
2018-06-17T17:52:37.860Z,52.84
2018-06-17T17:55:06.558Z,52.99
2018-06-17T17:57:35.243Z,53.08
2018-06-17T18:00:04.640Z,53.61
2018-06-17T18:02:33.662Z,53.90
2018-06-17T18:05:02.165Z,54.58
2018-06-17T18:07:31.428Z,54.24
2018-06-17T18:10:01.139Z,54.14
2018-06-17T18:12:29.958Z,54.69
2018-06-17T18:14:59.366Z,55.13
2018-06-17T18:17:27.972Z,55.42
2018-06-17T18:19:57.418Z,55.51
2018-06-17T18:22:25.892Z,55.89
2018-06-17T18:24:59.729Z,56.12
2018-06-17T18:27:33.711Z,56.02
2018-06-17T18:30:09.734Z,56.04
2018-06-17T18:32:43.517Z,56.78
2018-06-17T18:35:19.313Z,56.79
2018-06-17T18:37:50.522Z,57.33
2018-06-17T18:40:19.207Z,57.00
2018-06-17T18:42:47.943Z,56.94
2018-06-17T18:45:17.117Z,57.17
2018-06-17T18:47:45.679Z,57.47
2018-06-17T18:50:15.109Z,57.81
2018-06-17T18:52:44.739Z,56.91
2018-06-17T18:55:13.411Z,57.47
2018-06-17T18:57:41.964Z,56.84
2018-06-17T19:00:10.591Z,57.67
2018-06-17T19:02:39.351Z,57.16
2018-06-17T19:05:08.097Z,56.84
2018-06-17T19:07:36.948Z,56.54
2018-06-17T19:10:10.999Z,57.39
2018-06-17T19:12:44.973Z,56.80
2018-06-17T19:15:18.919Z,57.67
2018-06-17T19:17:52.929Z,57.69
2018-06-17T19:20:22.847Z,58.16
2018-06-17T19:22:51.401Z,57.79
2018-06-17T19:25:20.021Z,58.52
2018-06-17T19:27:48.893Z,58.18
2018-06-17T19:30:17.543Z,59.15
2018-06-17T19:32:46.353Z,58.93
2018-06-17T19:35:15.031Z,59.65
2018-06-17T19:37:43.564Z,60.27
2018-06-17T19:40:12.205Z,60.03
2018-06-17T19:42:41.070Z,60.04
2018-06-17T19:45:10.277Z,60.09
2018-06-17T19:47:39.000Z,60.71
2018-06-17T19:50:13.136Z,60.67
2018-06-17T19:52:47.473Z,60.39
2018-06-17T19:55:21.386Z,61.13
2018-06-17T19:57:55.312Z,61.14
2018-06-17T20:00:29.185Z,61.14
2018-06-17T20:02:58.541Z,61.76
2018-06-17T20:05:28.265Z,61.38
2018-06-17T20:07:57.155Z,61.92
2018-06-17T20:10:26.644Z,61.60
2018-06-17T20:12:55.620Z,62.00
2018-06-17T20:15:24.510Z,62.42
2018-06-17T20:17:53.882Z,62.03
2018-06-17T20:20:22.893Z,62.03
2018-06-17T20:22:51.416Z,62.14
2018-06-17T20:25:20.419Z,62.79
2018-06-17T20:27:50.724Z,62.41
2018-06-17T20:30:19.284Z,62.32
2018-06-17T20:32:53.435Z,62.61
2018-06-17T20:35:27.262Z,63.13
2018-06-17T20:38:01.098Z,62.84
2018-06-17T20:40:35.011Z,62.83
2018-06-17T20:43:10.256Z,63.41
2018-06-17T20:45:39.570Z,63.49
2018-06-17T20:48:09.447Z,63.33
2018-06-17T20:50:37.953Z,63.28
2018-06-17T20:53:07.515Z,63.51
2018-06-17T20:55:36.755Z,63.33
2018-06-17T20:58:06.908Z,63.61
2018-06-17T21:00:37.772Z,63.82
2018-06-17T21:03:06.506Z,63.10
2018-06-17T21:05:35.519Z,63.84
2018-06-17T21:08:04.206Z,64.16
2018-06-17T21:10:33.149Z,62.86
2018-06-17T21:13:01.680Z,63.67
2018-06-17T21:15:33.122Z,63.46
2018-06-17T21:18:01.911Z,63.85
2018-06-17T21:20:35.865Z,63.77
2018-06-17T21:23:11.327Z,64.09
2018-06-17T21:25:45.147Z,64.10
2018-06-17T21:28:14.364Z,65.12
2018-06-17T21:30:43.082Z,64.05
2018-06-17T21:33:11.845Z,64.49
2018-06-17T21:35:40.555Z,64.10
2018-06-17T21:38:09.994Z,64.81
2018-06-17T21:40:38.605Z,65.27
2018-06-17T21:43:07.572Z,65.24
2018-06-17T21:45:37.166Z,65.18
2018-06-17T21:48:05.990Z,65.75
2018-06-17T21:50:35.002Z,65.34
2018-06-17T21:53:03.721Z,65.09
2018-06-17T21:55:32.939Z,65.77
2018-06-17T21:58:02.313Z,65.35
2018-06-17T22:00:31.167Z,65.29
2018-06-17T22:03:00.120Z,64.97
2018-06-17T22:05:29.297Z,64.78
2018-06-17T22:08:03.022Z,65.51
2018-06-17T22:10:36.757Z,65.83
2018-06-17T22:13:05.393Z,65.74
2018-06-17T22:15:39.039Z,65.73
2018-06-17T22:18:07.638Z,65.01
2018-06-17T22:20:36.151Z,66.12
2018-06-17T22:23:04.765Z,65.75
2018-06-17T22:25:33.392Z,66.05
2018-06-17T22:28:02.009Z,66.31
2018-06-17T22:30:30.689Z,66.55
2018-06-17T22:32:59.225Z,65.96
2018-06-17T22:35:27.871Z,66.12
2018-06-17T22:37:56.457Z,66.53
2018-06-17T22:40:25.060Z,66.49
2018-06-17T22:42:53.729Z,66.37
2018-06-17T22:45:22.265Z,67.04
2018-06-17T22:47:55.982Z,66.19
2018-06-17T22:50:24.553Z,66.37
2018-06-17T22:53:04.100Z,67.05
2018-06-17T22:55:32.697Z,67.20
2018-06-17T22:58:06.417Z,67.66
2018-06-17T23:00:40.292Z,68.08
2018-06-17T23:03:14.012Z,67.35
2018-06-17T23:05:47.753Z,68.33
2018-06-17T23:08:21.641Z,67.98
2018-06-17T23:10:50.186Z,68.29
2018-06-17T23:13:18.713Z,68.05
2018-06-17T23:15:47.274Z,67.63
2018-06-17T23:18:15.897Z,67.50
2018-06-17T23:20:44.459Z,66.83
2018-06-17T23:23:13.092Z,68.26
2018-06-17T23:25:41.670Z,67.75
2018-06-17T23:28:10.311Z,68.08
2018-06-17T23:30:39.066Z,68.06
2018-06-17T23:33:07.479Z,68.66
2018-06-17T23:35:36.074Z,68.74
2018-06-17T23:38:04.629Z,69.17
2018-06-17T23:40:33.133Z,68.79
2018-06-17T23:43:01.721Z,68.77
2018-06-17T23:45:30.393Z,69.33
2018-06-17T23:48:04.257Z,68.57
2018-06-17T23:50:38.028Z,68.48
2018-06-17T23:53:11.786Z,69.14
2018-06-17T23:55:45.680Z,69.27
2018-06-17T23:58:14.446Z,69.73
